Accueil
METAR-TAF:

METAR-TAF

Aéroports :

Pékin, Chine

Aéroport international de Pékin-Capitale

latitude: 39-56N, longitude: 116-17E, altitude: 55 m

Observation

Le bulletin a été fait il y a 41 minutes, à 00:00 UTC
Vent 4 kt de nord
Température 23°C
Humidité 83%
Pression 1007 hPa
Visibilité 10 km ou plus
pas de nuages en-dessous de 1500 mètres et pas de cumulonimbus.

METAR: ZBAA 270000Z 36002MPS CAVOK 23/20 Q1007 NOSIG

Heure: 08:41 (00:41 UTC)

Prévision

Le bulletin a été fait il y a 3 heures et 11 minutes, à 21:30 UTC
Prévision valable du 27 à 00 UTC au 27 à 24 UTC
Vent 8 kt de nord
Visibilité: 7000 m

TAF: ZBAA 262130Z 2700/2724 01004MPS 7000 NSC TX30/2707Z TN21/2721Z

Observations et prévisions météorologiques de plus de 4000 aéroports (messages METAR et TAF).

Les stations disponibles sont représentées par des disques jaunes et rouges sur la carte.

Passer la souris dessus pour voir le nom de la station.

Cliquer dessus pour voir les observations et prévisions météorologiques.

Pour changer de carte: cliquez sur les boutons verts avec une croix noire pour zoomer, sur le bouton vert avec un tiret pour effectuer un zoom arrière, ou sur les flèches vertes pour les cartes adjacentes.


METAR-TAF: